Time;durP1;ratioP1;P1;durP2;ratioP2;P2;SDS_P1;SDS_P2;PMS_P1;PMS_P2;Temp;Humidity;BMP_temperature;BMP_pressure;BME280_temperature;BME280_humidity;BME280_pressure;Samples;Min_cycle;Max_cycle;Signal;HPM_P1;HPM_P2
2022/05/01 00:01:08;;;;;;;9.25;4.70;;;;;;;3.44;60.65;100393.53;5093389;28;20024;-60
2022/05/01 00:03:34;;;;;;;8.45;4.53;;;;;;;3.41;60.58;100388.34;5093006;28;20020;-60
2022/05/01 00:06:04;;;;;;;10.90;4.50;;;;;;;3.32;61.05;100385.59;5093403;28;20397;-60
2022/05/01 00:08:33;;;;;;;11.00;4.75;;;;;;;3.33;61.10;100395.00;5093648;28;20040;-60
2022/05/01 00:11:00;;;;;;;6.60;4.07;;;;;;;3.35;60.80;100399.34;5093112;28;20031;-59
2022/05/01 00:13:26;;;;;;;13.18;5.05;;;;;;;3.33;61.16;100400.13;5093378;28;20424;-59
2022/05/01 00:15:53;;;;;;;15.43;4.53;;;;;;;3.36;60.74;100410.44;5074776;28;20059;-59
2022/05/01 00:18:19;;;;;;;18.08;5.15;;;;;;;3.34;60.50;100400.16;5093320;28;20024;-59
2022/05/01 00:20:45;;;;;;;10.70;4.80;;;;;;;3.31;60.11;100404.34;5074840;28;20431;-59
2022/05/01 00:23:11;;;;;;;10.15;4.32;;;;;;;3.31;60.56;100407.78;5093066;28;20133;-59
2022/05/01 00:25:42;;;;;;;11.45;4.15;;;;;;;3.25;60.17;100408.53;5093173;28;20028;-58
2022/05/01 00:28:12;;;;;;;13.70;5.05;;;;;;;3.21;60.00;100404.19;5086429;28;20046;-59
2022/05/01 00:30:39;;;;;;;16.42;5.25;;;;;;;3.21;60.14;100398.19;5092885;28;20028;-59
2022/05/01 00:38:34;;;;;;;10.65;4.80;;;;;;;3.16;60.06;100407.47;5092614;28;20473;-60
2022/05/01 00:41:00;;;;;;;8.00;4.53;;;;;;;3.19;60.63;100410.97;5092788;28;20377;-60
2022/05/01 00:43:25;;;;;;;10.85;4.60;;;;;;;3.20;60.65;100407.56;5092696;28;20027;-60
2022/05/01 00:45:51;;;;;;;10.98;4.50;;;;;;;3.18;61.08;100410.91;5092842;28;20035;-59
2022/05/01 00:48:17;;;;;;;13.05;4.70;;;;;;;3.18;60.61;100414.34;5092778;28;20052;-59
2022/05/01 00:50:43;;;;;;;16.08;5.32;;;;;;;3.13;61.63;100407.41;5081429;28;20047;-59
2022/05/01 00:53:10;;;;;;;13.95;5.25;;;;;;;3.17;61.41;100410.06;5082049;28;20032;-59
2022/05/01 00:55:39;;;;;;;14.13;5.20;;;;;;;3.12;61.27;100414.19;5081316;28;20028;-59
2022/05/01 00:58:06;;;;;;;10.55;4.72;;;;;;;3.09;61.21;100411.59;5092476;28;20093;-60
2022/05/01 01:00:34;;;;;;;10.63;4.95;;;;;;;2.67;62.25;100353.59;5092445;28;20019;-60
2022/05/01 01:03:00;;;;;;;9.77;5.53;;;;;;;3.02;61.91;100410.63;5092330;28;20481;-60
2022/05/01 01:05:25;;;;;;;10.90;5.10;;;;;;;2.96;62.16;100409.63;5092152;28;20095;-60
2022/05/01 01:07:52;;;;;;;12.57;5.30;;;;;;;3.00;62.55;100412.25;5092182;28;20165;-60
2022/05/01 01:10:18;;;;;;;8.80;4.80;;;;;;;2.90;62.56;100413.75;5092385;28;20024;-59
2022/05/01 01:12:56;;;;;;;19.42;5.40;;;;;;;3.00;61.70;100422.50;5074140;28;20031;-60
2022/05/01 01:15:30;;;;;;;13.13;5.00;;;;;;;3.02;62.01;100422.53;5073919;28;20031;-60
2022/05/01 01:17:56;;;;;;;11.90;5.13;;;;;;;2.97;62.02;100419.88;5092392;28;20032;-60
2022/05/01 01:20:26;;;;;;;16.35;4.15;;;;;;;2.52;62.01;100355.00;5092063;28;20476;-60
2022/05/01 01:22:58;;;;;;;15.00;5.45;;;;;;;2.93;62.76;100418.09;5092068;28;20077;-59
2022/05/01 01:25:29;;;;;;;10.68;5.38;;;;;;;2.48;61.69;100334.41;5092349;28;20024;-59
2022/05/01 01:28:02;;;;;;;10.13;5.27;;;;;;;2.96;62.96;100420.69;5084509;28;20048;-59
2022/05/01 01:33:15;;;;;;;12.93;5.07;;;;;;;2.96;62.31;100415.59;5091804;28;20115;-60
2022/05/01 01:35:41;;;;;;;10.07;5.05;;;;;;;2.91;62.35;100420.59;5074063;28;20109;-60
2022/05/01 01:38:07;;;;;;;12.43;4.75;;;;;;;2.84;62.42;100411.06;5092157;28;20289;-58
2022/05/01 01:40:45;;;;;;;7.50;4.55;;;;;;;2.60;62.55;100367.94;5073747;28;20354;-59
2022/05/01 01:43:12;;;;;;;12.95;5.25;;;;;;;2.85;62.60;100410.25;5092033;28;20020;-58
2022/05/01 01:45:38;;;;;;;11.02;5.45;;;;;;;2.86;62.41;100409.41;5091844;28;20036;-59
2022/05/01 01:48:15;;;;;;;10.07;5.38;;;;;;;2.44;62.02;100330.94;5072034;28;20032;-59
2022/05/01 01:50:42;;;;;;;9.60;4.93;;;;;;;2.53;62.00;100340.50;5089471;28;20099;-59
2022/05/01 01:53:09;;;;;;;13.52;5.10;;;;;;;2.97;61.76;100401.13;5091570;28;20028;-59
2022/05/01 01:55:38;;;;;;;13.68;5.18;;;;;;;2.92;62.79;100403.56;5091783;28;20515;-59
2022/05/01 01:58:05;;;;;;;10.30;5.53;;;;;;;2.96;62.49;100412.19;5091963;28;20115;-59
2022/05/01 02:00:32;;;;;;;14.45;5.47;;;;;;;2.94;62.10;100407.03;5092137;28;20024;-60
2022/05/01 02:03:03;;;;;;;12.35;5.47;;;;;;;2.94;61.87;100418.13;5091773;28;20035;-60
2022/05/01 02:05:28;;;;;;;14.95;5.53;;;;;;;2.92;62.17;100414.66;5091448;28;20028;-60
2022/05/01 02:07:54;;;;;;;13.43;5.13;;;;;;;2.87;62.76;100410.28;5091843;28;20036;-59
2022/05/01 02:10:20;;;;;;;12.43;5.88;;;;;;;2.82;62.29;100412.75;5067645;28;20024;-60
2022/05/01 02:12:46;;;;;;;17.45;5.68;;;;;;;2.86;62.67;100414.53;5073253;28;20024;-60
2022/05/01 02:15:12;;;;;;;14.85;5.95;;;;;;;2.81;62.76;100405.91;5073642;28;20028;-59
2022/05/01 02:17:39;;;;;;;17.60;6.05;;;;;;;2.87;62.77;100416.25;5091561;28;20039;-60
2022/05/01 02:20:11;;;;;;;17.58;5.80;;;;;;;2.89;62.85;100412.06;5091586;28;20042;-60
2022/05/01 02:22:40;;;;;;;16.60;5.82;;;;;;;2.90;62.70;100439.34;5091692;28;20060;-60
2022/05/01 02:25:07;;;;;;;11.07;5.20;;;;;;;2.93;63.35;100413.81;5091448;28;20025;-59
2022/05/01 02:27:34;;;;;;;10.60;5.00;;;;;;;3.05;62.43;100417.47;5091843;28;20103;-60
2022/05/01 02:30:00;;;;;;;13.85;5.78;;;;;;;3.04;62.36;100413.22;5091533;28;20028;-60
2022/05/01 02:32:25;;;;;;;13.40;5.97;;;;;;;3.13;61.95;100422.78;5091074;28;20024;-61
2022/05/01 02:34:51;;;;;;;16.77;5.85;;;;;;;3.14;62.28;100425.34;5091758;28;20072;-59
2022/05/01 02:37:16;;;;;;;13.02;6.13;;;;;;;3.25;61.84;100420.44;5091322;28;20032;-60
2022/05/01 02:39:42;;;;;;;11.75;5.68;;;;;;;3.54;61.34;100423.59;5095462;28;20123;-60
2022/05/01 02:42:08;;;;;;;15.57;6.07;;;;;;;3.74;60.72;100421.41;5094679;28;20016;-60
2022/05/01 02:44:34;;;;;;;16.70;6.03;;;;;;;3.72;61.40;100422.19;5094907;28;20078;-60
2022/05/01 02:46:59;;;;;;;15.13;6.13;;;;;;;3.85;60.53;100421.59;5076960;28;20124;-61
2022/05/01 02:49:25;;;;;;;13.93;5.97;;;;;;;4.76;58.43;100422.16;5095028;28;20040;-60
2022/05/01 02:51:52;;;;;;;17.67;5.93;;;;;;;5.54;56.31;100417.16;5094997;28;20111;-60
2022/05/01 02:54:18;;;;;;;22.48;6.28;;;;;;;5.49;55.26;100418.84;5094871;28;20027;-60
2022/05/01 02:56:44;;;;;;;13.38;6.18;;;;;;;5.59;55.74;100420.66;5094938;28;20051;-60
2022/05/01 02:59:10;;;;;;;18.50;5.95;;;;;;;5.97;54.76;100422.78;5094837;28;20028;-60
2022/05/01 03:01:36;;;;;;;14.00;6.10;;;;;;;5.98;54.91;100421.06;5094741;28;20427;-60
2022/05/01 03:04:03;;;;;;;15.55;5.70;;;;;;;6.06;54.58;100416.88;5094738;28;20028;-61
2022/05/01 03:06:28;;;;;;;13.90;6.07;;;;;;;6.46;53.54;100424.06;5094497;28;20466;-59
2022/05/01 03:08:54;;;;;;;20.05;6.50;;;;;;;6.86;52.96;100421.72;5094787;28;20063;-60
2022/05/01 03:11:20;;;;;;;19.70;5.85;;;;;;;7.24;51.73;100416.75;5080619;28;20029;-60
2022/05/01 03:13:46;;;;;;;22.52;6.28;;;;;;;7.47;50.51;100412.53;5083534;28;20024;-60
2022/05/01 03:16:11;;;;;;;20.65;6.75;;;;;;;7.54;50.59;100420.31;5094651;28;20055;-59
2022/05/01 03:24:06;;;;;;;15.00;6.53;;;;;;;7.65;50.27;100422.91;5074140;28;20032;-60
2022/05/01 03:26:32;;;;;;;16.08;7.20;;;;;;;7.82;50.28;100417.78;5071584;28;20024;-60
2022/05/01 03:28:58;;;;;;;17.38;6.75;;;;;;;8.13;49.24;100421.25;5086201;28;20031;-60
2022/05/01 03:31:27;;;;;;;16.70;5.88;;;;;;;8.47;48.14;100430.75;5093989;28;20051;-60
2022/05/01 03:33:54;;;;;;;26.02;12.30;;;;;;;8.75;49.19;100422.97;5093765;28;20071;-60
2022/05/01 03:36:21;;;;;;;22.10;9.48;;;;;;;9.17;47.06;100421.13;5075854;28;20032;-60
2022/05/01 03:38:47;;;;;;;26.23;9.13;;;;;;;9.14;48.28;100427.16;5093733;28;20028;-61
2022/05/01 03:41:14;;;;;;;16.67;6.85;;;;;;;9.32;45.94;100426.25;5094036;28;20038;-59
2022/05/01 03:43:40;;;;;;;14.30;5.57;;;;;;;9.73;43.98;100431.19;5093808;28;20031;-59
2022/05/01 03:46:06;;;;;;;17.52;6.57;;;;;;;9.76;44.31;100429.47;5093777;28;20020;-60
2022/05/01 03:48:32;;;;;;;12.85;6.32;;;;;;;10.19;43.66;100429.16;5094112;28;20452;-60
2022/05/01 03:50:59;;;;;;;20.17;7.20;;;;;;;10.63;42.62;100431.41;5093088;28;20472;-61
2022/05/01 03:53:25;;;;;;;15.10;5.93;;;;;;;11.12;40.83;100436.06;5093686;28;20016;-60
2022/05/01 03:55:52;;;;;;;12.40;6.40;;;;;;;11.29;40.76;100422.06;5093869;28;20028;-60
2022/05/01 03:58:21;;;;;;;13.93;5.97;;;;;;;11.55;39.02;100422.56;5093833;28;20024;-60
2022/05/01 04:00:48;;;;;;;10.38;4.70;;;;;;;10.81;38.86;100423.44;5093577;28;20040;-61
2022/05/01 04:03:17;;;;;;;9.27;5.90;;;;;;;10.47;39.52;100425.50;5093449;28;20112;-60
2022/05/01 04:05:43;;;;;;;12.80;5.40;;;;;;;10.19;42.70;100428.31;5093512;28;20544;-60
2022/05/01 04:08:10;;;;;;;9.65;5.45;;;;;;;9.95;41.38;100425.03;5093326;28;20028;-60
2022/05/01 04:10:41;;;;;;;9.25;5.15;;;;;;;9.53;40.40;100428.72;5093439;28;20028;-60
2022/05/01 04:13:07;;;;;;;10.02;4.80;;;;;;;9.36;41.71;100408.97;5093502;28;20023;-60
2022/05/01 04:15:33;;;;;;;11.82;5.00;;;;;;;9.37;42.56;100421.03;5093291;28;20065;-60
2022/05/01 04:17:59;;;;;;;8.10;4.95;;;;;;;9.32;41.61;100433.16;5093279;28;20040;-60
2022/05/01 04:20:26;;;;;;;12.65;4.75;;;;;;;9.24;41.66;100434.91;5093068;28;20096;-60
2022/05/01 04:22:52;;;;;;;11.35;4.47;;;;;;;9.15;40.92;100431.47;5092887;28;20020;-59
2022/05/01 04:25:19;;;;;;;6.38;4.90;;;;;;;9.07;41.70;100427.19;5092965;28;20485;-60
2022/05/01 04:27:51;;;;;;;9.15;4.53;;;;;;;8.77;41.07;100429.84;5084699;28;20028;-60
2022/05/01 04:30:19;;;;;;;5.22;3.70;;;;;;;8.21;40.71;100373.94;5093396;28;20028;-60
2022/05/01 04:32:58;;;;;;;5.85;3.50;;;;;;;8.59;41.27;100428.19;5092469;28;20024;-60
2022/05/01 04:35:31;;;;;;;5.25;3.40;;;;;;;8.69;40.64;100420.41;5092485;28;20028;-60
2022/05/01 04:38:01;;;;;;;6.45;3.85;;;;;;;8.73;40.86;100429.84;5092742;28;20538;-60
2022/05/01 04:40:48;;;;;;;6.57;3.70;;;;;;;8.42;40.62;100371.38;5074537;28;20500;-60
2022/05/01 04:43:24;;;;;;;8.75;3.50;;;;;;;8.83;40.70;100428.13;5092620;28;20028;-59
2022/05/01 04:45:52;;;;;;;4.13;2.85;;;;;;;8.93;41.07;100368.66;5092788;28;20032;-60
2022/05/01 04:48:19;;;;;;;6.35;3.38;;;;;;;10.19;38.48;100423.97;5092470;28;20039;-60
2022/05/01 04:50:46;;;;;;;4.05;3.17;;;;;;;11.05;36.85;100417.13;5092851;28;20020;-60
2022/05/01 04:53:14;;;;;;;5.88;3.40;;;;;;;11.61;36.63;100371.47;5091617;28;20028;-60
2022/05/01 04:55:42;;;;;;;4.63;3.10;;;;;;;12.68;35.49;100418.22;5089807;28;20544;-60
2022/05/01 04:58:09;;;;;;;4.80;2.70;;;;;;;12.85;33.39;100412.69;5065390;28;20036;-61
2022/05/01 05:00:35;;;;;;;6.22;2.90;;;;;;;12.67;32.85;100418.25;5079120;28;20026;-61
2022/05/01 05:03:02;;;;;;;3.00;2.47;;;;;;;13.39;32.12;100416.00;5081805;28;20028;-61
2022/05/01 05:05:29;;;;;;;6.57;2.78;;;;;;;13.40;32.07;100415.13;5082980;28;20025;-61
2022/05/01 05:07:55;;;;;;;5.93;2.50;;;;;;;14.11;31.42;100413.53;5092150;28;20036;-61
2022/05/01 05:10:21;;;;;;;6.32;2.67;;;;;;;14.03;31.37;100415.47;5089815;28;20024;-61
2022/05/01 05:12:48;;;;;;;3.03;2.33;;;;;;;14.84;29.94;100363.84;5081338;28;20424;-61
2022/05/01 05:15:16;;;;;;;4.68;2.53;;;;;;;15.99;28.85;100413.53;5072329;28;20074;-61
2022/05/01 05:17:43;;;;;;;4.40;2.60;;;;;;;15.67;28.29;100357.91;5088011;28;20028;-61
2022/05/01 05:20:11;;;;;;;4.63;2.90;;;;;;;15.57;28.45;100363.47;5091908;28;20020;-61
2022/05/01 05:22:37;;;;;;;3.95;2.40;;;;;;;16.21;27.77;100412.84;5092138;28;20036;-61
2022/05/01 05:25:04;;;;;;;4.60;2.40;;;;;;;16.02;26.94;100413.44;5091904;28;20024;-61
2022/05/01 05:27:30;;;;;;;3.45;2.10;;;;;;;16.86;26.62;100415.84;5092231;28;20020;-61
2022/05/01 05:29:57;;;;;;;5.07;2.55;;;;;;;17.08;26.73;100398.47;5092015;28;20081;-61
2022/05/01 05:32:24;;;;;;;4.25;2.40;;;;;;;17.01;26.65;100362.13;5091605;28;20499;-60
2022/05/01 05:34:50;;;;;;;2.33;1.85;;;;;;;17.21;26.35;100401.50;5091719;28;20032;-62
2022/05/01 05:37:17;;;;;;;2.45;2.00;;;;;;;17.54;26.21;100413.38;5090811;28;20100;-61
2022/05/01 05:39:44;;;;;;;1.88;1.58;;;;;;;17.53;25.63;100406.41;5092345;28;20028;-61
2022/05/01 05:42:10;;;;;;;2.92;1.90;;;;;;;17.59;25.58;100406.19;5091703;28;20031;-61
2022/05/01 05:44:36;;;;;;;6.15;2.30;;;;;;;17.62;25.50;100405.22;5091518;28;20078;-61
2022/05/01 05:47:02;;;;;;;4.32;2.03;;;;;;;16.86;26.12;100402.75;5091737;28;20028;-61
2022/05/01 05:49:27;;;;;;;1.60;1.50;;;;;;;16.01;26.29;100403.88;5091664;28;20036;-62
2022/05/01 05:51:53;;;;;;;5.22;1.63;;;;;;;15.60;26.72;100406.00;5091942;28;20027;-62
2022/05/01 05:54:18;;;;;;;2.75;1.55;;;;;;;16.17;26.87;100395.53;5078227;28;20043;-62
2022/05/01 05:56:44;;;;;;;1.92;1.73;;;;;;;15.86;26.37;100392.19;5069590;28;20035;-61
2022/05/01 05:59:11;;;;;;;2.60;1.60;;;;;;;16.22;27.49;100393.66;5091606;28;20032;-57
2022/05/01 06:01:37;;;;;;;3.10;1.77;;;;;;;16.11;27.68;100399.22;5080903;28;20039;-57
2022/05/01 06:04:03;;;;;;;4.65;1.63;;;;;;;15.99;27.13;100397.00;5091442;28;20028;-61
2022/05/01 06:06:29;;;;;;;3.00;1.60;;;;;;;15.96;26.77;100390.13;5091600;28;20394;-58
2022/05/01 06:08:55;;;;;;;5.72;1.80;;;;;;;15.39;27.05;100394.47;5091477;28;20161;-58
2022/05/01 06:11:20;;;;;;;2.05;1.60;;;;;;;15.59;26.50;100396.47;5091735;28;20469;-59
2022/05/01 06:13:46;;;;;;;3.00;1.77;;;;;;;15.62;26.80;100388.53;5092509;28;20016;-59
2022/05/01 06:16:11;;;;;;;2.50;1.73;;;;;;;15.14;27.62;100395.19;5095888;28;20020;-60
2022/05/01 06:18:37;;;;;;;2.13;1.52;;;;;;;15.90;26.55;100390.31;5095274;28;20477;-60
2022/05/01 06:21:02;;;;;;;4.22;1.40;;;;;;;16.32;26.48;100396.81;5095279;28;20474;-59
2022/05/01 06:23:28;;;;;;;1.77;1.30;;;;;;;15.09;26.62;100388.38;5095365;28;20056;-60
2022/05/01 06:25:54;;;;;;;2.58;1.33;;;;;;;15.80;26.65;100391.50;5095134;28;20550;-59
2022/05/01 06:28:20;;;;;;;2.42;1.58;;;;;;;16.05;26.06;100400.25;5091999;28;20398;-60
2022/05/01 06:30:47;;;;;;;4.25;1.73;;;;;;;16.24;25.68;100393.59;5094779;28;20492;-60
2022/05/01 06:33:15;;;;;;;5.82;1.50;;;;;;;16.41;25.70;100387.78;5094689;28;20097;-60
2022/05/01 06:35:41;;;;;;;3.28;1.98;;;;;;;16.58;25.67;100380.22;5095281;28;20111;-60
2022/05/01 06:38:07;;;;;;;4.45;1.70;;;;;;;15.86;26.05;100386.97;5094608;28;20078;-60
2022/05/01 06:40:34;;;;;;;4.55;2.00;;;;;;;16.35;24.62;100394.94;5095020;28;20139;-60
2022/05/01 06:43:00;;;;;;;3.70;1.70;;;;;;;16.42;25.17;100390.34;5094872;28;20036;-60
2022/05/01 06:45:26;;;;;;;3.40;2.00;;;;;;;16.53;24.47;100388.22;5094958;28;20066;-60
2022/05/01 06:47:51;;;;;;;5.38;2.00;;;;;;;16.00;25.48;100386.50;5094613;28;20039;-60
2022/05/01 06:50:17;;;;;;;2.45;1.88;;;;;;;16.64;26.46;100374.75;5076371;28;20047;-60
2022/05/01 06:52:42;;;;;;;5.43;2.10;;;;;;;16.19;25.29;100389.38;5094748;28;20024;-60
2022/05/01 06:55:09;;;;;;;5.53;2.28;;;;;;;15.76;25.54;100382.03;5094766;28;20031;-60
2022/05/01 06:57:35;;;;;;;3.53;2.08;;;;;;;15.67;25.80;100370.13;5094800;28;20039;-60
2022/05/01 07:00:00;;;;;;;6.07;2.33;;;;;;;16.21;25.67;100373.63;5094510;28;20044;-60
2022/05/01 07:02:26;;;;;;;4.75;2.25;;;;;;;15.77;26.99;100365.47;5094536;28;20028;-61
2022/05/01 07:04:52;;;;;;;3.47;2.40;;;;;;;16.41;26.59;100372.09;5094309;28;20031;-62
2022/05/01 07:07:18;;;;;;;2.60;2.10;;;;;;;15.85;25.78;100364.34;5094108;28;20442;-60
2022/05/01 07:09:43;;;;;;;4.80;2.30;;;;;;;17.05;25.09;100361.97;5094358;28;20043;-60
2022/05/01 07:12:11;;;;;;;3.33;1.80;;;;;;;16.73;25.07;100363.97;5075066;28;20025;-60
2022/05/01 07:14:39;;;;;;;3.83;2.00;;;;;;;16.95;25.30;100359.75;5088729;28;20099;-60
2022/05/01 07:17:05;;;;;;;3.38;1.90;;;;;;;17.47;25.42;100359.53;5094522;28;20031;-60
2022/05/01 07:19:30;;;;;;;4.95;1.52;;;;;;;17.69;23.96;100357.75;5094304;28;20369;-61
2022/05/01 07:21:56;;;;;;;3.25;1.70;;;;;;;17.56;23.85;100322.50;5094021;28;20054;-60
2022/05/01 07:24:21;;;;;;;3.67;1.77;;;;;;;17.86;23.97;100357.09;5093024;28;20020;-60
2022/05/01 07:26:47;;;;;;;3.20;1.65;;;;;;;17.73;23.32;100350.66;5093860;28;20043;-61
2022/05/01 07:29:13;;;;;;;2.28;1.70;;;;;;;18.36;23.02;100340.16;5094286;28;20031;-60
2022/05/01 07:31:39;;;;;;;2.83;1.92;;;;;;;18.24;24.13;100345.94;5094007;28;20457;-60
2022/05/01 07:34:05;;;;;;;3.58;2.10;;;;;;;17.70;24.65;100346.38;5093657;28;20385;-60
2022/05/01 07:36:31;;;;;;;5.57;2.20;;;;;;;17.40;24.59;100335.34;5094164;28;20457;-61
2022/05/01 07:38:57;;;;;;;3.85;1.73;;;;;;;17.48;24.95;100345.53;5093771;28;20030;-61
2022/05/01 07:41:22;;;;;;;2.88;2.00;;;;;;;16.73;24.92;100342.16;5093943;28;20024;-60
2022/05/01 07:43:48;;;;;;;3.00;1.88;;;;;;;16.51;25.86;100329.88;5093599;28;20034;-61
2022/05/01 07:46:14;;;;;;;2.97;1.65;;;;;;;16.58;25.81;100337.53;5093815;28;20100;-61
2022/05/01 07:48:40;;;;;;;1.73;1.40;;;;;;;16.79;25.82;100336.75;5093779;28;20487;-60
2022/05/01 07:51:07;;;;;;;9.30;1.70;;;;;;;16.61;25.30;100327.78;5094032;28;20051;-60
2022/05/01 07:53:33;;;;;;;5.95;1.90;;;;;;;16.23;24.87;100332.59;5093382;28;20035;-61
2022/05/01 07:55:59;;;;;;;6.32;2.00;;;;;;;16.08;25.45;100333.16;5093422;28;20497;-60
2022/05/01 07:58:26;;;;;;;5.97;1.90;;;;;;;15.58;25.09;100334.72;5093396;28;20052;-60
2022/05/01 08:00:53;;;;;;;4.57;1.90;;;;;;;15.24;25.68;100330.53;5093553;28;20020;-61
2022/05/01 08:06:02;;;;;;;4.47;1.52;;;;;;;15.10;27.27;100328.31;5093483;28;20051;-60
2022/05/01 08:08:33;;;;;;;3.25;1.40;;;;;;;14.76;26.21;100325.84;5093020;28;20036;-60
2022/05/01 08:11:00;;;;;;;1.98;1.42;;;;;;;14.79;26.15;100255.34;5093269;28;20032;-61
2022/05/01 08:13:26;;;;;;;3.05;1.60;;;;;;;15.18;27.02;100318.53;5092888;28;20560;-61
2022/05/01 08:15:51;;;;;;;3.45;1.58;;;;;;;15.41;26.51;100313.50;5093047;28;20091;-61
2022/05/01 08:21:10;;;;;;;2.72;1.70;;;;;;;15.24;26.63;100298.38;5074431;28;20397;-61
2022/05/01 08:23:38;;;;;;;2.15;1.70;;;;;;;14.93;26.00;100305.34;5074713;28;20070;-61
2022/05/01 08:26:06;;;;;;;2.45;1.80;;;;;;;14.66;27.16;100305.28;5093009;28;20028;-60
2022/05/01 08:28:40;;;;;;;2.80;2.00;;;;;;;13.99;27.48;100268.81;5082452;28;20039;-60
2022/05/01 08:31:06;;;;;;;4.53;2.00;;;;;;;14.82;29.09;100300.47;5092979;28;20028;-60
2022/05/01 08:33:34;;;;;;;5.97;1.83;;;;;;;14.87;29.54;100287.28;5092907;28;20357;-60
2022/05/01 08:35:59;;;;;;;2.70;2.00;;;;;;;15.32;28.17;100302.44;5092908;28;20035;-60
2022/05/01 08:38:25;;;;;;;2.55;1.92;;;;;;;15.01;26.03;100274.69;5092672;28;20538;-61
2022/05/01 08:40:52;;;;;;;4.65;2.10;;;;;;;15.24;27.19;100287.94;5092672;28;20032;-61
2022/05/01 08:43:19;;;;;;;3.15;1.92;;;;;;;15.34;26.72;100282.34;5092545;28;20032;-61
2022/05/01 08:45:57;;;;;;;3.65;1.98;;;;;;;14.77;27.20;100285.84;5092862;28;20028;-60
2022/05/01 08:48:30;;;;;;;8.95;2.17;;;;;;;14.52;27.08;100270.84;5092692;28;20418;-60
2022/05/01 08:50:56;;;;;;;3.00;1.90;;;;;;;14.93;27.72;100284.47;5092806;28;20055;-60
2022/05/01 08:53:28;;;;;;;2.45;1.67;;;;;;;14.81;28.58;100238.78;5092208;28;20045;-59
2022/05/01 08:55:54;;;;;;;2.30;2.10;;;;;;;14.55;27.49;100278.63;5092476;28;20107;-61
2022/05/01 08:58:21;;;;;;;2.75;2.10;;;;;;;14.59;27.42;100271.53;5092399;28;20032;-61
2022/05/01 09:00:49;;;;;;;6.80;2.55;;;;;;;14.56;27.63;100279.47;5092179;28;20113;-60
2022/05/01 09:03:16;;;;;;;5.10;1.65;;;;;;;14.52;26.77;100263.03;5092057;28;20078;-60
2022/05/01 09:05:42;;;;;;;2.80;1.80;;;;;;;14.35;27.25;100255.72;5092032;28;20093;-59
2022/05/01 09:08:07;;;;;;;4.82;2.15;;;;;;;14.11;27.03;100252.03;5092162;28;20032;-59
2022/05/01 09:10:33;;;;;;;4.53;2.00;;;;;;;14.45;27.61;100248.47;5087688;28;20374;-59
2022/05/01 09:12:59;;;;;;;3.63;1.70;;;;;;;14.49;27.46;100248.38;5071765;28;20107;-60
2022/05/01 09:15:40;;;;;;;4.18;1.80;;;;;;;14.25;27.17;100197.81;5091963;28;20024;-60
2022/05/01 09:18:10;;;;;;;3.70;2.00;;;;;;;14.52;27.84;100255.22;5089337;28;20449;-60
2022/05/01 09:20:38;;;;;;;2.70;2.00;;;;;;;14.65;28.25;100237.50;5091678;28;20051;-59
2022/05/01 09:23:05;;;;;;;4.38;1.85;;;;;;;14.90;26.80;100236.78;5092016;28;20024;-60
2022/05/01 09:25:33;;;;;;;4.10;1.80;;;;;;;14.56;27.46;100241.19;5091554;28;20031;-61
2022/05/01 09:28:17;;;;;;;3.15;2.00;;;;;;;14.42;26.57;100238.16;5091839;28;20119;-60
2022/05/01 09:30:44;;;;;;;3.50;2.25;;;;;;;14.29;29.30;100230.69;5091993;28;20149;-61
2022/05/01 09:33:20;;;;;;;3.55;2.20;;;;;;;14.54;28.17;100229.97;5091715;28;20103;-61
2022/05/01 09:35:47;;;;;;;14.63;2.30;;;;;;;14.62;27.26;100235.00;5091950;28;20075;-62
2022/05/01 09:38:19;;;;;;;5.90;1.98;;;;;;;14.58;27.21;100236.81;5091588;28;20024;-61
2022/05/01 09:40:50;;;;;;;2.22;1.90;;;;;;;14.04;26.87;100208.78;5091573;28;20529;-61
2022/05/01 09:43:35;;;;;;;2.40;2.20;;;;;;;14.56;27.63;100214.28;5091692;28;20028;-62
2022/05/01 09:46:29;;;;;;;3.95;2.22;;;;;;;14.53;27.38;100214.38;5091911;28;20771;-61
2022/05/01 09:49:00;;;;;;;3.05;2.00;;;;;;;14.30;29.00;100224.56;5094610;28;20041;-60
2022/05/01 09:51:28;;;;;;;2.60;2.13;;;;;;;14.35;27.38;100218.38;5096273;28;20028;-60
2022/05/01 09:53:55;;;;;;;3.40;2.42;;;;;;;14.01;27.30;100217.56;5095592;28;20420;-62
2022/05/01 09:56:21;;;;;;;3.25;2.40;;;;;;;13.92;28.12;100223.88;5095924;28;20111;-62
2022/05/01 09:58:56;;;;;;;2.97;2.28;;;;;;;14.20;28.18;100212.69;5095694;28;20077;-61
2022/05/01 10:01:21;;;;;;;4.78;2.60;;;;;;;14.27;27.83;100198.59;5095162;28;20513;-61
2022/05/01 10:03:47;;;;;;;3.35;2.53;;;;;;;14.32;27.46;100201.94;5095811;28;20089;-62
2022/05/01 10:06:14;;;;;;;3.80;2.00;;;;;;;14.59;27.64;100191.63;5095368;28;20048;-61
2022/05/01 10:08:42;;;;;;;6.75;2.47;;;;;;;14.76;27.75;100195.47;5095637;28;20119;-60
2022/05/01 10:11:08;;;;;;;2.75;2.20;;;;;;;14.52;27.74;100197.03;5095429;28;20642;-61
2022/05/01 10:13:35;;;;;;;2.50;2.30;;;;;;;14.20;26.27;100197.06;5095265;28;20035;-61
2022/05/01 10:16:04;;;;;;;3.75;2.30;;;;;;;14.30;27.34;100190.69;5095740;28;20027;-61
2022/05/01 10:18:31;;;;;;;5.90;2.42;;;;;;;14.27;26.77;100196.00;5095543;28;20024;-61
2022/05/01 10:20:56;;;;;;;3.10;2.13;;;;;;;14.35;27.18;100180.16;5095394;28;20031;-61
2022/05/01 10:23:22;;;;;;;4.97;2.38;;;;;;;14.53;28.40;100170.91;5095017;28;20559;-62
2022/05/01 10:25:51;;;;;;;5.45;2.70;;;;;;;14.54;27.48;100175.25;5095089;28;20116;-61
2022/05/01 10:28:53;;;;;;;4.65;2.75;;;;;;;14.64;27.86;100178.47;5094915;28;20028;-61
2022/05/01 10:34:25;;;;;;;5.55;2.40;;;;;;;14.39;27.48;100170.47;5074642;28;19915;-61
2022/05/01 10:37:19;;;;;;;4.43;2.58;;;;;;;14.62;26.72;100167.22;5094819;28;20381;-59
2022/05/01 10:39:46;;;;;;;3.22;2.35;;;;;;;14.59;27.02;100162.06;5060148;28;20127;-60
2022/05/01 10:42:11;;;;;;;5.32;2.40;;;;;;;14.55;27.06;100163.94;5094799;28;20481;-60
2022/05/01 10:44:38;;;;;;;4.13;2.20;;;;;;;14.56;27.63;100165.63;5094853;28;20352;-60
2022/05/01 10:47:14;;;;;;;3.33;2.40;;;;;;;14.33;27.97;100114.19;5095022;28;20330;-60
2022/05/01 10:49:41;;;;;;;6.68;2.90;;;;;;;14.34;28.21;100121.13;5076293;28;20439;-60
2022/05/01 10:52:21;;;;;;;6.05;2.70;;;;;;;14.32;27.45;100168.06;5094659;28;20020;-60
2022/05/01 10:55:04;;;;;;;5.68;2.40;;;;;;;13.69;27.64;100158.53;5094514;28;20024;-59
2022/05/01 10:57:30;;;;;;;5.55;2.90;;;;;;;14.25;28.87;100148.31;5074701;28;20124;-60
2022/05/01 11:00:13;;;;;;;3.88;2.80;;;;;;;14.25;28.17;100100.53;5089559;28;20062;-60
2022/05/01 11:02:45;;;;;;;5.70;2.63;;;;;;;14.69;26.45;100152.25;5094582;28;20473;-59
2022/05/01 11:05:42;;;;;;;3.33;2.45;;;;;;;14.41;26.05;100137.41;5094335;28;20187;-61
2022/05/01 11:08:40;;;;;;;4.43;2.33;;;;;;;14.57;27.24;100143.03;5094403;28;20107;-60
2022/05/01 11:11:11;;;;;;;4.00;2.50;;;;;;;14.55;27.89;100131.78;5082292;28;20512;-60
2022/05/01 11:13:38;;;;;;;5.05;2.17;;;;;;;14.47;26.70;100139.84;5095051;28;20031;-61
2022/05/01 11:16:08;;;;;;;3.30;3.00;;;;;;;14.43;27.02;100139.06;5094500;28;20032;-61
2022/05/01 11:18:40;;;;;;;5.35;2.70;;;;;;;14.43;27.68;100138.22;5094331;28;20465;-61
2022/05/01 11:21:27;;;;;;;4.32;2.50;;;;;;;14.26;27.55;100129.13;5094185;28;20028;-60
2022/05/01 11:24:03;;;;;;;3.80;2.50;;;;;;;14.16;26.97;100080.81;5080434;28;20035;-60
2022/05/01 11:26:29;;;;;;;3.17;2.53;;;;;;;14.62;26.52;100126.38;5093516;28;20048;-61
2022/05/01 11:29:06;;;;;;;3.35;2.70;;;;;;;14.63;27.18;100114.19;5081959;28;20055;-62
2022/05/01 11:31:38;;;;;;;4.15;2.60;;;;;;;14.59;27.87;100117.75;5093371;28;20047;-62
2022/05/01 11:34:15;;;;;;;5.50;2.90;;;;;;;14.56;26.45;100113.47;5087374;28;20031;-60
2022/05/01 11:37:09;;;;;;;2.92;2.50;;;;;;;14.78;26.75;100107.66;5093789;28;20035;-61
2022/05/01 11:39:43;;;;;;;4.30;2.67;;;;;;;14.73;25.50;100101.72;5092600;28;20077;-60
2022/05/01 11:42:24;;;;;;;5.13;2.60;;;;;;;14.89;26.80;100104.69;5092609;28;20043;-60
2022/05/01 11:44:54;;;;;;;2.95;2.50;;;;;;;14.77;26.44;100116.38;5092590;28;20040;-61
2022/05/01 11:47:21;;;;;;;4.25;2.70;;;;;;;14.67;25.49;100059.28;5093709;28;20028;-61
2022/05/01 11:49:47;;;;;;;2.65;2.10;;;;;;;14.90;25.90;100091.59;5093326;28;20477;-61
2022/05/01 11:52:13;;;;;;;5.32;2.60;;;;;;;14.90;27.02;100088.13;5092686;28;20032;-60
2022/05/01 11:54:58;;;;;;;3.28;2.47;;;;;;;14.79;26.75;100091.09;5093676;28;20373;-60